Arctic Pride — 6YRQ5 — position and weather

sailwx.info

Track history (hours):
 
Tides and Currents Weather Stations Pressure Air Temp Water Temp Dewpoint Dewpoint Depression Visibility Wind Speed Wind Dir Waves Ship Positions

Arctic Pride

Last reported at 2018-Jun-25 08:00 UTC. Time now 2018-Jun-25 08:20 UTC.
Position N 47°39' W 122°20'.

Length 38 m; draft 1.9 m.

Type: Pleasure craft. MMSI: 339335000.

Date/timePositionNaut miles runAvg speedWind from/ knotsBaromVisibWave heightAir tempDewpointWater temp
2018-Jun-25 08:00N 47°39' W 122°20'0 0.0
2018-Jun-25 07:30N 47°39' W 122°20'0 0.0
2018-Jun-25 07:00N 47°39' W 122°20'0 0.0
2018-Jun-25 06:30N 47°39' W 122°20'0 0.0
2018-Jun-25 06:00N 47°39' W 122°20'0 0.0
2018-Jun-25 05:30N 47°39' W 122°20'0 0.0
2018-Jun-25 05:00N 47°39' W 122°20'0 0.0
2018-Jun-25 04:30N 47°39' W 122°20'0 0.0
2018-Jun-25 03:57N 47°39' W 122°20'0 0.0
2018-Jun-25 03:30N 47°39' W 122°20'0 0.0
2018-Jun-25 03:00N 47°39' W 122°20'0 0.0
2018-Jun-25 02:27N 47°39' W 122°20'0 0.0
2018-Jun-25 02:00N 47°39' W 122°20'0 0.0
2018-Jun-25 01:30N 47°39' W 122°20'0 0.0
2018-Jun-25 01:00N 47°39' W 122°20'0 0.0
2018-Jun-25 00:30N 47°39' W 122°20'0 0.0
2018-Jun-25 00:00N 47°39' W 122°20'0 0.0
2018-Jun-24 23:30N 47°39' W 122°20'0 0.0
2018-Jun-24 23:00N 47°39' W 122°20'0 0.0
2018-Jun-24 22:30N 47°39' W 122°20'0 0.0
2018-Jun-24 22:00N 47°39' W 122°20'0 0.0
2018-Jun-24 21:30N 47°39' W 122°20'0 0.0
2018-Jun-24 21:00N 47°39' W 122°20'0 0.0
2018-Jun-24 20:30N 47°39' W 122°20'0 0.0
2018-Jun-24 20:00N 47°39' W 122°20'0 0.0
2018-Jun-24 19:30N 47°39' W 122°20'0 0.0
2018-Jun-24 19:00N 47°39' W 122°20'0 0.0
2018-Jun-24 18:30N 47°39' W 122°20'0 0.0
2018-Jun-24 18:00N 47°39' W 122°20'0 0.0
2018-Jun-24 17:30N 47°39' W 122°20'0 0.0
2018-Jun-24 16:57N 47°39' W 122°20'0 0.0
2018-Jun-24 16:30N 47°39' W 122°20'0 0.0
2018-Jun-24 15:57N 47°39' W 122°20'0 0.0
2018-Jun-24 15:27N 47°39' W 122°20'0 0.0
2018-Jun-24 14:57N 47°39' W 122°20'0 0.0
2018-Jun-24 14:24N 47°39' W 122°20'0 0.0
2018-Jun-24 14:00N 47°39' W 122°20'0 0.0
2018-Jun-24 13:30N 47°39' W 122°20'0 0.0
2018-Jun-24 13:00N 47°39' W 122°20'0 0.0
2018-Jun-24 12:30N 47°39' W 122°20'0 0.0
2018-Jun-24 12:00N 47°39' W 122°20'0 0.0
2018-Jun-24 11:30N 47°39' W 122°20'0 0.0
2018-Jun-24 11:00N 47°39' W 122°20'0 0.0
2018-Jun-24 10:30N 47°39' W 122°20'0 0.0
2018-Jun-24 10:00N 47°39' W 122°20'0 0.0
2018-Jun-24 09:30N 47°39' W 122°20'0 0.0
2018-Jun-24 09:00N 47°39' W 122°20'0 0.0
2018-Jun-24 08:30N 47°39' W 122°20'0 0.0
2018-Jun-24 08:00N 47°39' W 122°20'0 0.0
2018-Jun-24 07:30N 47°39' W 122°20'0 0.0
2018-Jun-24 07:00N 47°39' W 122°20'0 0.0
2018-Jun-24 06:30N 47°39' W 122°20'0 0.0
2018-Jun-24 06:00N 47°39' W 122°20'0 0.0
2018-Jun-24 05:30N 47°39' W 122°20'0 0.0
2018-Jun-24 05:00N 47°39' W 122°20'0 0.0
2018-Jun-24 04:30N 47°39' W 122°20'0 0.2
2018-Jun-24 04:00N 47°39' W 122°20'3 5.7
2018-Jun-24 03:30N 47°38' W 122°16'2 4.4
2018-Jun-24 03:00N 47°36' W 122°15'1 2.2
2018-Jun-24 02:30N 47°36' W 122°17'2 5.0
2018-Jun-24 02:01N 47°39' W 122°17'3 4.9
2018-Jun-24 01:29N 47°40' W 122°14'1 1.9
2018-Jun-24 01:00N 47°40' W 122°13'2 4.2
2018-Jun-24 00:30N 47°38' W 122°15'2 4.2
2018-Jun-24 00:01N 47°36' W 122°13'1 2.7
2018-Jun-23 23:30N 47°36' W 122°15'0 0.6
2018-Jun-23 23:00N 47°36' W 122°15'1 1.4
2018-Jun-23 22:31N 47°36' W 122°15'2 4.4
2018-Jun-23 22:00N 47°38' W 122°16'2 4.7
2018-Jun-23 21:30N 47°39' W 122°20'0 0.0
2018-Jun-23 21:00N 47°39' W 122°20'0 0.0
2018-Jun-23 20:30N 47°39' W 122°20'0 0.0
2018-Jun-23 20:00N 47°39' W 122°20'0 0.0
2018-Jun-23 19:30N 47°39' W 122°20'0 0.0
2018-Jun-23 19:00N 47°39' W 122°20'0 0.0
2018-Jun-23 18:27N 47°39' W 122°20'0 0.0
2018-Jun-23 18:00N 47°39' W 122°20'0 0.0
2018-Jun-23 17:30N 47°39' W 122°20'0 0.0
2018-Jun-23 17:00N 47°39' W 122°20'0 0.0
2018-Jun-23 16:30N 47°39' W 122°20'0 0.0
2018-Jun-23 16:00N 47°39' W 122°20'0 0.0
2018-Jun-23 15:30N 47°39' W 122°20'0 0.0
2018-Jun-23 15:00N 47°39' W 122°20'0 0.0
2018-Jun-23 14:30N 47°39' W 122°20'0 0.0
2018-Jun-23 13:57N 47°39' W 122°20'0 0.0
2018-Jun-23 13:30N 47°39' W 122°20'0 0.0
2018-Jun-23 12:57N 47°39' W 122°20'0 0.0
2018-Jun-23 12:30N 47°39' W 122°20'0 0.0
2018-Jun-23 12:00N 47°39' W 122°20'0 0.0
2018-Jun-23 11:30N 47°39' W 122°20'0 0.0
2018-Jun-23 11:00N 47°39' W 122°20'0 0.0
2018-Jun-23 10:30N 47°39' W 122°20'0 0.0
2018-Jun-23 10:00N 47°39' W 122°20'0 0.0
2018-Jun-23 09:30N 47°39' W 122°20'0 0.0
2018-Jun-23 09:00N 47°39' W 122°20'0 0.0
2018-Jun-23 08:30N 47°39' W 122°20'0 0.0
2018-Jun-23 08:00N 47°39' W 122°20'0 0.0
2018-Jun-23 07:30N 47°39' W 122°20'0 0.0
2018-Jun-23 07:00N 47°39' W 122°20'0 0.0
2018-Jun-23 06:30N 47°39' W 122°20'0 0.0
2018-Jun-23 06:00N 47°39' W 122°20'0 0.0
2018-Jun-23 05:30N 47°39' W 122°20'0 0.0
2018-Jun-23 05:00N 47°39' W 122°20'0 0.0
2018-Jun-23 04:30N 47°39' W 122°20'0 0.0
2018-Jun-23 04:00N 47°39' W 122°20'0 0.0
2018-Jun-23 03:30N 47°39' W 122°20'0 0.0
2018-Jun-23 03:00N 47°39' W 122°20'0 0.0
2018-Jun-23 02:30N 47°39' W 122°20'0 0.0
2018-Jun-23 01:57N 47°39' W 122°20'0 0.0
2018-Jun-23 01:30N 47°39' W 122°20'0 0.0
2018-Jun-23 01:00N 47°39' W 122°20'0 0.0
2018-Jun-23 00:27N 47°39' W 122°20'0 0.0
2018-Jun-23 00:00N 47°39' W 122°20'0 0.0
2018-Jun-22 23:30N 47°39' W 122°20'0 0.0
2018-Jun-22 23:00N 47°39' W 122°20'0 0.0
2018-Jun-22 22:24N 47°39' W 122°20'0 0.0
2018-Jun-22 22:00N 47°39' W 122°20'0 0.0
2018-Jun-22 21:30N 47°39' W 122°20'0 0.0
2018-Jun-22 21:00N 47°39' W 122°20'0 0.0
2018-Jun-22 20:30N 47°39' W 122°20'0 0.0
2018-Jun-22 20:00N 47°39' W 122°20'0 0.0
2018-Jun-22 19:27N 47°39' W 122°20'0 0.0
2018-Jun-22 19:00N 47°39' W 122°20'0 0.0
2018-Jun-22 18:30N 47°39' W 122°20'0 0.0
2018-Jun-22 18:00N 47°39' W 122°20'0 0.0
2018-Jun-22 17:30N 47°39' W 122°20'0 0.0
2018-Jun-22 17:00N 47°39' W 122°20'0 0.0
2018-Jun-22 16:30N 47°39' W 122°20'0 0.0
2018-Jun-22 16:00N 47°39' W 122°20'0 0.0
2018-Jun-22 15:30N 47°39' W 122°20'0 0.0
2018-Jun-22 14:57N 47°39' W 122°20'0 0.0
2018-Jun-22 14:30N 47°39' W 122°20'0 0.0
2018-Jun-22 13:57N 47°39' W 122°20'0 0.0
2018-Jun-22 13:27N 47°39' W 122°20'0 0.0
2018-Jun-22 13:00N 47°39' W 122°20'0 0.0
2018-Jun-22 12:30N 47°39' W 122°20'0 0.0
2018-Jun-22 11:57N 47°39' W 122°20'0 0.0
2018-Jun-22 11:30N 47°39' W 122°20'0 0.0
2018-Jun-22 11:00N 47°39' W 122°20'0 0.0
2018-Jun-22 10:30N 47°39' W 122°20'0 0.0
2018-Jun-22 10:00N 47°39' W 122°20'0 0.0
2018-Jun-22 09:30N 47°39' W 122°20'0 0.0
2018-Jun-22 09:00N 47°39' W 122°20'0 0.0
2018-Jun-22 08:30N 47°39' W 122°20'0 0.0
2018-Jun-22 08:00N 47°39' W 122°20'0 0.0
2018-Jun-22 07:30N 47°39' W 122°20'0 0.0
2018-Jun-22 07:00N 47°39' W 122°20'0 0.0
2018-Jun-22 06:30N 47°39' W 122°20'0 0.0
2018-Jun-22 06:00N 47°39' W 122°20'0 0.0
2018-Jun-22 05:30N 47°39' W 122°20'0 0.0
2018-Jun-22 05:00N 47°39' W 122°20'0 0.0
2018-Jun-22 04:30N 47°39' W 122°20'0 0.0
2018-Jun-22 04:00N 47°39' W 122°20'0 0.0
2018-Jun-22 03:30N 47°39' W 122°20'0 0.0
2018-Jun-22 03:00N 47°39' W 122°20'0 0.0
2018-Jun-22 02:30N 47°39' W 122°20'0 0.0
2018-Jun-22 02:00N 47°39' W 122°20'0 0.0
2018-Jun-22 01:30N 47°39' W 122°20'0 0.0
2018-Jun-22 01:00N 47°39' W 122°20'0 0.0
2018-Jun-22 00:30N 47°39' W 122°20'0 0.0
2018-Jun-22 00:00N 47°39' W 122°20'0 0.0
2018-Jun-21 23:27N 47°39' W 122°20'0 0.0
2018-Jun-21 23:00N 47°39' W 122°20'0 0.0
2018-Jun-21 22:30N 47°39' W 122°20'0 0.0
2018-Jun-21 21:57N 47°39' W 122°20'0 0.0
2018-Jun-21 21:27N 47°39' W 122°20'0 0.0
2018-Jun-21 21:00N 47°39' W 122°20'0 0.0
2018-Jun-21 20:30N 47°39' W 122°20'0 0.0
2018-Jun-21 20:00N 47°39' W 122°20'0 0.0
2018-Jun-21 19:30N 47°39' W 122°20'0 0.0
2018-Jun-21 18:57N 47°39' W 122°20'0 0.0
2018-Jun-21 18:30N 47°39' W 122°20'0 0.0
2018-Jun-21 17:57N 47°39' W 122°20'0 0.0
2018-Jun-21 17:30N 47°39' W 122°20'0 0.0
2018-Jun-21 17:00N 47°39' W 122°20'0 0.0
2018-Jun-21 16:30N 47°39' W 122°20'0 0.0
2018-Jun-21 16:00N 47°39' W 122°20'0 0.0
2018-Jun-21 15:21N 47°39' W 122°20'0 0.0
2018-Jun-21 14:57N 47°39' W 122°20'0 0.0
2018-Jun-21 14:12N 47°39' W 122°20'0 0.0
2018-Jun-21 13:57N 47°39' W 122°20'0 0.0
2018-Jun-21 13:30N 47°39' W 122°20'0 0.0
2018-Jun-21 12:57N 47°39' W 122°20'0 0.0
2018-Jun-21 12:27N 47°39' W 122°20'0 0.0
2018-Jun-21 12:00N 47°39' W 122°20'0 0.0
2018-Jun-21 11:15N 47°39' W 122°20'0 0.0
2018-Jun-21 11:00N 47°39' W 122°20'0 0.0
2018-Jun-21 09:47N 47°39' W 122°20'0 0.0
2018-Jun-21 09:30N 47°39' W 122°20'0 0.0
2018-Jun-21 08:48N 47°39' W 122°20'0 0.0
2018-Jun-21 08:30N 47°39' W 122°20'0 0.0
2018-Jun-21 08:00N 47°39' W 122°20'0 0.0
2018-Jun-21 07:30N 47°39' W 122°20'0 0.0
2018-Jun-21 06:59N 47°39' W 122°20'0 0.0
2018-Jun-21 06:30N 47°39' W 122°20'0 0.0
2018-Jun-21 06:00N 47°39' W 122°20'0 0.0
2018-Jun-21 05:30N 47°39' W 122°20'0 0.0
2018-Jun-21 05:00N 47°39' W 122°20'0 0.0
2018-Jun-21 04:27N 47°39' W 122°20'0 0.0
2018-Jun-21 04:00N 47°39' W 122°20'0 0.0
2018-Jun-21 03:30N 47°39' W 122°20'0 0.0
2018-Jun-21 03:00N 47°39' W 122°20'0 0.0
2018-Jun-21 02:29N 47°39' W 122°20'0 0.0
2018-Jun-21 02:00N 47°39' W 122°20'0 0.0
2018-Jun-21 01:29N 47°39' W 122°20'0 0.0
2018-Jun-21 00:56N 47°39' W 122°20'0 0.0
2018-Jun-21 00:29N 47°39' W 122°20'0 0.0
2018-Jun-21 00:00N 47°39' W 122°20'0 0.0
2018-Jun-20 23:30N 47°39' W 122°20'0 0.0
2018-Jun-20 22:59N 47°39' W 122°20'0 0.0
2018-Jun-20 22:26N 47°39' W 122°20'0 0.0
2018-Jun-20 21:59N 47°39' W 122°20'0 0.0
2018-Jun-20 21:29N 47°39' W 122°20'0 0.0
2018-Jun-20 21:00N 47°39' W 122°20'2 4.9
2018-Jun-20 20:30N 47°40' W 122°23'1 1.1
2018-Jun-20 20:00N 47°40' W 122°24'2 3.6
2018-Jun-20 19:31N 47°42' W 122°25'612.3
2018-Jun-20 19:00N 47°48' W 122°26'611.6
2018-Jun-20 18:31N 47°53' W 122°30'3512.8
2018-Jun-20 15:48N 48°21' W 123°00'713.0
2018-Jun-20 15:15N 48°27' W 123°07'413.7
2018-Jun-20 14:58N 48°30' W 123°10'812.5
2018-Jun-20 14:19N 48°38' W 123°12'1 0.1
2018-Jun-19 23:57N 48°37' W 123°10'8 8.4
2018-Jun-19 22:57N 48°44' W 123°18'612.8
2018-Jun-19 22:27N 48°50' W 123°21'710.5
2018-Jun-19 21:49N 48°57' W 123°20'911.8
2018-Jun-19 21:03N 49°06' W 123°24'210.3
2018-Jun-19 20:53N 49°07' W 123°23'410.9
2018-Jun-19 20:30N 49°11' W 123°22'612.0
2018-Jun-19 20:00N 49°17' W 123°20'  
2018-Jun-16 17:29N 49°21' W 123°18'612.0
2018-Jun-16 17:01N 49°19' W 123°09'2 3.6
2018-Jun-16 16:27N 49°18' W 123°08'0 0.0
2018-Jun-16 15:44N 49°18' W 123°08'0 0.0
2018-Jun-16 15:26N 49°18' W 123°08'0 0.0
2018-Jun-16 14:57N 49°18' W 123°08'0 0.0
2018-Jun-16 14:26N 49°18' W 123°08'0 0.0
2018-Jun-16 13:59N 49°18' W 123°08'0 0.0
2018-Jun-16 13:26N 49°18' W 123°08'0 0.0
2018-Jun-16 12:56N 49°18' W 123°08'0 0.1
2018-Jun-16 12:26N 49°18' W 123°08'0 0.1
2018-Jun-16 11:56N 49°18' W 123°08'0 0.0
2018-Jun-16 11:29N 49°18' W 123°08'0 0.1
2018-Jun-16 10:59N 49°18' W 123°07'0 0.1
2018-Jun-16 10:27N 49°18' W 123°08'0 0.0
2018-Jun-16 09:59N 49°18' W 123°08'0 0.4
2018-Jun-16 09:29N 49°17' W 123°07'0 0.3
2018-Jun-16 08:56N 49°18' W 123°07'0 0.1
2018-Jun-16 08:26N 49°17' W 123°08'0 0.1
2018-Jun-16 07:56N 49°17' W 123°08'0 0.1
2018-Jun-16 07:26N 49°18' W 123°07'0 0.1
2018-Jun-16 06:57N 49°18' W 123°08'0 0.0
2018-Jun-16 06:26N 49°18' W 123°08'0 0.0
2018-Jun-16 05:59N 49°18' W 123°08'0 0.1
2018-Jun-16 05:29N 49°18' W 123°07'0 0.1
2018-Jun-16 04:59N 49°18' W 123°08'0 0.0
2018-Jun-16 04:26N 49°18' W 123°08'0 0.1
2018-Jun-16 03:53N 49°18' W 123°07'0 0.1
2018-Jun-16 03:26N 49°18' W 123°08'0 0.1
2018-Jun-16 02:59N 49°18' W 123°07'0 0.1
2018-Jun-16 02:26N 49°18' W 123°08'0 0.1
2018-Jun-16 01:56N 49°18' W 123°07'0 0.0
2018-Jun-16 01:02N 49°18' W 123°07'0 0.1
2018-Jun-16 00:44N 49°18' W 123°08'0 0.0
2018-Jun-16 00:29N 49°18' W 123°08'0 0.1
2018-Jun-15 23:47N 49°18' W 123°07'0 0.1
2018-Jun-15 23:11N 49°18' W 123°08'0 0.0
2018-Jun-15 19:44N 49°18' W 123°07'0 0.0
2018-Jun-15 17:29N 49°18' W 123°07'0 0.1
2018-Jun-15 16:56N 49°18' W 123°08'0 0.0
2018-Jun-15 16:26N 49°18' W 123°08'0 0.0
2018-Jun-15 15:53N 49°18' W 123°08'0 0.0
2018-Jun-15 15:29N 49°18' W 123°08'0 0.0
2018-Jun-15 14:59N 49°18' W 123°08'0 0.1
2018-Jun-15 14:29N 49°18' W 123°07'0 0.1
2018-Jun-15 13:56N 49°18' W 123°08'0 0.0
2018-Jun-15 13:26N 49°18' W 123°08'0 0.0
2018-Jun-15 12:56N 49°18' W 123°08'0 0.1
2018-Jun-15 12:29N 49°18' W 123°08'0 0.1
2018-Jun-15 11:59N 49°18' W 123°08'0 0.0
2018-Jun-15 11:29N 49°17' W 123°08'0 0.0
2018-Jun-15 10:56N 49°18' W 123°08'0 0.0
2018-Jun-15 10:29N 49°18' W 123°08'0 0.1
2018-Jun-15 09:59N 49°17' W 123°08'0 0.1
2018-Jun-15 09:29N 49°18' W 123°08'0 0.1
2018-Jun-15 08:59N 49°18' W 123°07'0 0.1
2018-Jun-15 08:26N 49°18' W 123°08'  
Track history (hours):
 
Tides and Currents Weather Stations Pressure Air Temp Water Temp Dewpoint Dewpoint Depression Visibility Wind Speed Wind Dir Waves Ship Positions

Arctic Pride

Last reported at 2018-Jun-25 08:00 UTC. Time now 2018-Jun-25 08:20 UTC.
Position N 47°39' W 122°20'.

Length 38 m; draft 1.9 m.

Type: Pleasure craft. MMSI: 339335000.

Date/timePositionNaut miles runAvg speedWind from/ knotsBaromVisibWave heightAir tempDewpointWater temp
2018-Jun-25 08:00N 47°39' W 122°20'0 0.0
2018-Jun-25 07:30N 47°39' W 122°20'0 0.0
2018-Jun-25 07:00N 47°39' W 122°20'0 0.0
2018-Jun-25 06:30N 47°39' W 122°20'0 0.0
2018-Jun-25 06:00N 47°39' W 122°20'0 0.0
2018-Jun-25 05:30N 47°39' W 122°20'0 0.0
2018-Jun-25 05:00N 47°39' W 122°20'0 0.0
2018-Jun-25 04:30N 47°39' W 122°20'0 0.0
2018-Jun-25 03:57N 47°39' W 122°20'0 0.0
2018-Jun-25 03:30N 47°39' W 122°20'0 0.0
2018-Jun-25 03:00N 47°39' W 122°20'0 0.0
2018-Jun-25 02:27N 47°39' W 122°20'0 0.0
2018-Jun-25 02:00N 47°39' W 122°20'0 0.0
2018-Jun-25 01:30N 47°39' W 122°20'0 0.0
2018-Jun-25 01:00N 47°39' W 122°20'0 0.0
2018-Jun-25 00:30N 47°39' W 122°20'0 0.0
2018-Jun-25 00:00N 47°39' W 122°20'0 0.0
2018-Jun-24 23:30N 47°39' W 122°20'0 0.0
2018-Jun-24 23:00N 47°39' W 122°20'0 0.0
2018-Jun-24 22:30N 47°39' W 122°20'0 0.0
2018-Jun-24 22:00N 47°39' W 122°20'0 0.0
2018-Jun-24 21:30N 47°39' W 122°20'0 0.0
2018-Jun-24 21:00N 47°39' W 122°20'0 0.0
2018-Jun-24 20:30N 47°39' W 122°20'0 0.0
2018-Jun-24 20:00N 47°39' W 122°20'0 0.0
2018-Jun-24 19:30N 47°39' W 122°20'0 0.0
2018-Jun-24 19:00N 47°39' W 122°20'0 0.0
2018-Jun-24 18:30N 47°39' W 122°20'0 0.0
2018-Jun-24 18:00N 47°39' W 122°20'0 0.0
2018-Jun-24 17:30N 47°39' W 122°20'0 0.0
2018-Jun-24 16:57N 47°39' W 122°20'0 0.0
2018-Jun-24 16:30N 47°39' W 122°20'0 0.0
2018-Jun-24 15:57N 47°39' W 122°20'0 0.0
2018-Jun-24 15:27N 47°39' W 122°20'0 0.0
2018-Jun-24 14:57N 47°39' W 122°20'0 0.0
2018-Jun-24 14:24N 47°39' W 122°20'0 0.0
2018-Jun-24 14:00N 47°39' W 122°20'0 0.0
2018-Jun-24 13:30N 47°39' W 122°20'0 0.0
2018-Jun-24 13:00N 47°39' W 122°20'0 0.0
2018-Jun-24 12:30N 47°39' W 122°20'0 0.0
2018-Jun-24 12:00N 47°39' W 122°20'0 0.0
2018-Jun-24 11:30N 47°39' W 122°20'0 0.0
2018-Jun-24 11:00N 47°39' W 122°20'0 0.0
2018-Jun-24 10:30N 47°39' W 122°20'0 0.0
2018-Jun-24 10:00N 47°39' W 122°20'0 0.0
2018-Jun-24 09:30N 47°39' W 122°20'0 0.0
2018-Jun-24 09:00N 47°39' W 122°20'0 0.0
2018-Jun-24 08:30N 47°39' W 122°20'0 0.0
2018-Jun-24 08:00N 47°39' W 122°20'0 0.0
2018-Jun-24 07:30N 47°39' W 122°20'0 0.0
2018-Jun-24 07:00N 47°39' W 122°20'0 0.0
2018-Jun-24 06:30N 47°39' W 122°20'0 0.0
2018-Jun-24 06:00N 47°39' W 122°20'0 0.0
2018-Jun-24 05:30N 47°39' W 122°20'0 0.0
2018-Jun-24 05:00N 47°39' W 122°20'0 0.0
2018-Jun-24 04:30N 47°39' W 122°20'0 0.2
2018-Jun-24 04:00N 47°39' W 122°20'3 5.7
2018-Jun-24 03:30N 47°38' W 122°16'2 4.4
2018-Jun-24 03:00N 47°36' W 122°15'1 2.2
2018-Jun-24 02:30N 47°36' W 122°17'2 5.0
2018-Jun-24 02:01N 47°39' W 122°17'3 4.9
2018-Jun-24 01:29N 47°40' W 122°14'1 1.9
2018-Jun-24 01:00N 47°40' W 122°13'2 4.2
2018-Jun-24 00:30N 47°38' W 122°15'2 4.2
2018-Jun-24 00:01N 47°36' W 122°13'1 2.7
2018-Jun-23 23:30N 47°36' W 122°15'0 0.6
2018-Jun-23 23:00N 47°36' W 122°15'1 1.4
2018-Jun-23 22:31N 47°36' W 122°15'2 4.4
2018-Jun-23 22:00N 47°38' W 122°16'2 4.7
2018-Jun-23 21:30N 47°39' W 122°20'0 0.0
2018-Jun-23 21:00N 47°39' W 122°20'0 0.0
2018-Jun-23 20:30N 47°39' W 122°20'0 0.0
2018-Jun-23 20:00N 47°39' W 122°20'0 0.0
2018-Jun-23 19:30N 47°39' W 122°20'0 0.0
2018-Jun-23 19:00N 47°39' W 122°20'0 0.0
2018-Jun-23 18:27N 47°39' W 122°20'0 0.0
2018-Jun-23 18:00N 47°39' W 122°20'0 0.0
2018-Jun-23 17:30N 47°39' W 122°20'0 0.0
2018-Jun-23 17:00N 47°39' W 122°20'0 0.0
2018-Jun-23 16:30N 47°39' W 122°20'0 0.0
2018-Jun-23 16:00N 47°39' W 122°20'0 0.0
2018-Jun-23 15:30N 47°39' W 122°20'0 0.0
2018-Jun-23 15:00N 47°39' W 122°20'0 0.0
2018-Jun-23 14:30N 47°39' W 122°20'0 0.0
2018-Jun-23 13:57N 47°39' W 122°20'0 0.0
2018-Jun-23 13:30N 47°39' W 122°20'0 0.0
2018-Jun-23 12:57N 47°39' W 122°20'0 0.0
2018-Jun-23 12:30N 47°39' W 122°20'0 0.0
2018-Jun-23 12:00N 47°39' W 122°20'0 0.0
2018-Jun-23 11:30N 47°39' W 122°20'0 0.0
2018-Jun-23 11:00N 47°39' W 122°20'0 0.0
2018-Jun-23 10:30N 47°39' W 122°20'0 0.0
2018-Jun-23 10:00N 47°39' W 122°20'0 0.0
2018-Jun-23 09:30N 47°39' W 122°20'0 0.0
2018-Jun-23 09:00N 47°39' W 122°20'0 0.0
2018-Jun-23 08:30N 47°39' W 122°20'0 0.0
2018-Jun-23 08:00N 47°39' W 122°20'0 0.0
2018-Jun-23 07:30N 47°39' W 122°20'0 0.0
2018-Jun-23 07:00N 47°39' W 122°20'0 0.0
2018-Jun-23 06:30N 47°39' W 122°20'0 0.0
2018-Jun-23 06:00N 47°39' W 122°20'0 0.0
2018-Jun-23 05:30N 47°39' W 122°20'0 0.0
2018-Jun-23 05:00N 47°39' W 122°20'0 0.0
2018-Jun-23 04:30N 47°39' W 122°20'0 0.0
2018-Jun-23 04:00N 47°39' W 122°20'0 0.0
2018-Jun-23 03:30N 47°39' W 122°20'0 0.0
2018-Jun-23 03:00N 47°39' W 122°20'0 0.0
2018-Jun-23 02:30N 47°39' W 122°20'0 0.0
2018-Jun-23 01:57N 47°39' W 122°20'0 0.0
2018-Jun-23 01:30N 47°39' W 122°20'0 0.0
2018-Jun-23 01:00N 47°39' W 122°20'0 0.0
2018-Jun-23 00:27N 47°39' W 122°20'0 0.0
2018-Jun-23 00:00N 47°39' W 122°20'0 0.0
2018-Jun-22 23:30N 47°39' W 122°20'0 0.0
2018-Jun-22 23:00N 47°39' W 122°20'0 0.0
2018-Jun-22 22:24N 47°39' W 122°20'0 0.0
2018-Jun-22 22:00N 47°39' W 122°20'0 0.0
2018-Jun-22 21:30N 47°39' W 122°20'0 0.0
2018-Jun-22 21:00N 47°39' W 122°20'0 0.0
2018-Jun-22 20:30N 47°39' W 122°20'0 0.0
2018-Jun-22 20:00N 47°39' W 122°20'0 0.0
2018-Jun-22 19:27N 47°39' W 122°20'0 0.0
2018-Jun-22 19:00N 47°39' W 122°20'0 0.0
2018-Jun-22 18:30N 47°39' W 122°20'0 0.0
2018-Jun-22 18:00N 47°39' W 122°20'0 0.0
2018-Jun-22 17:30N 47°39' W 122°20'0 0.0
2018-Jun-22 17:00N 47°39' W 122°20'0 0.0
2018-Jun-22 16:30N 47°39' W 122°20'0 0.0
2018-Jun-22 16:00N 47°39' W 122°20'0 0.0
2018-Jun-22 15:30N 47°39' W 122°20'0 0.0
2018-Jun-22 14:57N 47°39' W 122°20'0 0.0
2018-Jun-22 14:30N 47°39' W 122°20'0 0.0
2018-Jun-22 13:57N 47°39' W 122°20'0 0.0
2018-Jun-22 13:27N 47°39' W 122°20'0 0.0
2018-Jun-22 13:00N 47°39' W 122°20'0 0.0
2018-Jun-22 12:30N 47°39' W 122°20'0 0.0
2018-Jun-22 11:57N 47°39' W 122°20'0 0.0
2018-Jun-22 11:30N 47°39' W 122°20'0 0.0
2018-Jun-22 11:00N 47°39' W 122°20'0 0.0
2018-Jun-22 10:30N 47°39' W 122°20'0 0.0
2018-Jun-22 10:00N 47°39' W 122°20'0 0.0
2018-Jun-22 09:30N 47°39' W 122°20'0 0.0
2018-Jun-22 09:00N 47°39' W 122°20'0 0.0
2018-Jun-22 08:30N 47°39' W 122°20'0 0.0
2018-Jun-22 08:00N 47°39' W 122°20'0 0.0
2018-Jun-22 07:30N 47°39' W 122°20'0 0.0
2018-Jun-22 07:00N 47°39' W 122°20'0 0.0
2018-Jun-22 06:30N 47°39' W 122°20'0 0.0
2018-Jun-22 06:00N 47°39' W 122°20'0 0.0
2018-Jun-22 05:30N 47°39' W 122°20'0 0.0
2018-Jun-22 05:00N 47°39' W 122°20'0 0.0
2018-Jun-22 04:30N 47°39' W 122°20'0 0.0
2018-Jun-22 04:00N 47°39' W 122°20'0 0.0
2018-Jun-22 03:30N 47°39' W 122°20'0 0.0
2018-Jun-22 03:00N 47°39' W 122°20'0 0.0
2018-Jun-22 02:30N 47°39' W 122°20'0 0.0
2018-Jun-22 02:00N 47°39' W 122°20'0 0.0
2018-Jun-22 01:30N 47°39' W 122°20'0 0.0
2018-Jun-22 01:00N 47°39' W 122°20'0 0.0
2018-Jun-22 00:30N 47°39' W 122°20'0 0.0
2018-Jun-22 00:00N 47°39' W 122°20'0 0.0
2018-Jun-21 23:27N 47°39' W 122°20'0 0.0
2018-Jun-21 23:00N 47°39' W 122°20'0 0.0
2018-Jun-21 22:30N 47°39' W 122°20'0 0.0
2018-Jun-21 21:57N 47°39' W 122°20'0 0.0
2018-Jun-21 21:27N 47°39' W 122°20'0 0.0
2018-Jun-21 21:00N 47°39' W 122°20'0 0.0
2018-Jun-21 20:30N 47°39' W 122°20'0 0.0
2018-Jun-21 20:00N 47°39' W 122°20'0 0.0
2018-Jun-21 19:30N 47°39' W 122°20'0 0.0
2018-Jun-21 18:57N 47°39' W 122°20'0 0.0
2018-Jun-21 18:30N 47°39' W 122°20'0 0.0
2018-Jun-21 17:57N 47°39' W 122°20'0 0.0
2018-Jun-21 17:30N 47°39' W 122°20'0 0.0
2018-Jun-21 17:00N 47°39' W 122°20'0 0.0
2018-Jun-21 16:30N 47°39' W 122°20'0 0.0
2018-Jun-21 16:00N 47°39' W 122°20'0 0.0
2018-Jun-21 15:21N 47°39' W 122°20'0 0.0
2018-Jun-21 14:57N 47°39' W 122°20'0 0.0
2018-Jun-21 14:12N 47°39' W 122°20'0 0.0
2018-Jun-21 13:57N 47°39' W 122°20'0 0.0
2018-Jun-21 13:30N 47°39' W 122°20'0 0.0
2018-Jun-21 12:57N 47°39' W 122°20'0 0.0
2018-Jun-21 12:27N 47°39' W 122°20'0 0.0
2018-Jun-21 12:00N 47°39' W 122°20'0 0.0
2018-Jun-21 11:15N 47°39' W 122°20'0 0.0
2018-Jun-21 11:00N 47°39' W 122°20'0 0.0
2018-Jun-21 09:47N 47°39' W 122°20'0 0.0
2018-Jun-21 09:30N 47°39' W 122°20'0 0.0
2018-Jun-21 08:48N 47°39' W 122°20'0 0.0
2018-Jun-21 08:30N 47°39' W 122°20'0 0.0
2018-Jun-21 08:00N 47°39' W 122°20'0 0.0
2018-Jun-21 07:30N 47°39' W 122°20'0 0.0
2018-Jun-21 06:59N 47°39' W 122°20'0 0.0
2018-Jun-21 06:30N 47°39' W 122°20'0 0.0
2018-Jun-21 06:00N 47°39' W 122°20'0 0.0
2018-Jun-21 05:30N 47°39' W 122°20'0 0.0
2018-Jun-21 05:00N 47°39' W 122°20'0 0.0
2018-Jun-21 04:27N 47°39' W 122°20'0 0.0
2018-Jun-21 04:00N 47°39' W 122°20'0 0.0
2018-Jun-21 03:30N 47°39' W 122°20'0 0.0
2018-Jun-21 03:00N 47°39' W 122°20'0 0.0
2018-Jun-21 02:29N 47°39' W 122°20'0 0.0
2018-Jun-21 02:00N 47°39' W 122°20'0 0.0
2018-Jun-21 01:29N 47°39' W 122°20'0 0.0
2018-Jun-21 00:56N 47°39' W 122°20'0 0.0
2018-Jun-21 00:29N 47°39' W 122°20'0 0.0
2018-Jun-21 00:00N 47°39' W 122°20'0 0.0
2018-Jun-20 23:30N 47°39' W 122°20'0 0.0
2018-Jun-20 22:59N 47°39' W 122°20'0 0.0
2018-Jun-20 22:26N 47°39' W 122°20'0 0.0
2018-Jun-20 21:59N 47°39' W 122°20'0 0.0
2018-Jun-20 21:29N 47°39' W 122°20'0 0.0
2018-Jun-20 21:00N 47°39' W 122°20'2 4.9
2018-Jun-20 20:30N 47°40' W 122°23'1 1.1
2018-Jun-20 20:00N 47°40' W 122°24'2 3.6
2018-Jun-20 19:31N 47°42' W 122°25'612.3
2018-Jun-20 19:00N 47°48' W 122°26'611.6
2018-Jun-20 18:31N 47°53' W 122°30'3512.8
2018-Jun-20 15:48N 48°21' W 123°00'713.0
2018-Jun-20 15:15N 48°27' W 123°07'413.7
2018-Jun-20 14:58N 48°30' W 123°10'812.5
2018-Jun-20 14:19N 48°38' W 123°12'1 0.1
2018-Jun-19 23:57N 48°37' W 123°10'8 8.4
2018-Jun-19 22:57N 48°44' W 123°18'612.8
2018-Jun-19 22:27N 48°50' W 123°21'710.5
2018-Jun-19 21:49N 48°57' W 123°20'911.8
2018-Jun-19 21:03N 49°06' W 123°24'210.3
2018-Jun-19 20:53N 49°07' W 123°23'410.9
2018-Jun-19 20:30N 49°11' W 123°22'612.0
2018-Jun-19 20:00N 49°17' W 123°20'  
2018-Jun-16 17:29N 49°21' W 123°18'612.0
2018-Jun-16 17:01N 49°19' W 123°09'2 3.6
2018-Jun-16 16:27N 49°18' W 123°08'0 0.0
2018-Jun-16 15:44N 49°18' W 123°08'0 0.0
2018-Jun-16 15:26N 49°18' W 123°08'0 0.0
2018-Jun-16 14:57N 49°18' W 123°08'0 0.0
2018-Jun-16 14:26N 49°18' W 123°08'0 0.0
2018-Jun-16 13:59N 49°18' W 123°08'0 0.0
2018-Jun-16 13:26N 49°18' W 123°08'0 0.0
2018-Jun-16 12:56N 49°18' W 123°08'0 0.1
2018-Jun-16 12:26N 49°18' W 123°08'0 0.1
2018-Jun-16 11:56N 49°18' W 123°08'0 0.0
2018-Jun-16 11:29N 49°18' W 123°08'0 0.1
2018-Jun-16 10:59N 49°18' W 123°07'0 0.1
2018-Jun-16 10:27N 49°18' W 123°08'0 0.0
2018-Jun-16 09:59N 49°18' W 123°08'0 0.4
2018-Jun-16 09:29N 49°17' W 123°07'0 0.3
2018-Jun-16 08:56N 49°18' W 123°07'0 0.1
2018-Jun-16 08:26N 49°17' W 123°08'0 0.1
2018-Jun-16 07:56N 49°17' W 123°08'0 0.1
2018-Jun-16 07:26N 49°18' W 123°07'0 0.1
2018-Jun-16 06:57N 49°18' W 123°08'0 0.0
2018-Jun-16 06:26N 49°18' W 123°08'0 0.0
2018-Jun-16 05:59N 49°18' W 123°08'0 0.1
2018-Jun-16 05:29N 49°18' W 123°07'0 0.1
2018-Jun-16 04:59N 49°18' W 123°08'0 0.0
2018-Jun-16 04:26N 49°18' W 123°08'0 0.1
2018-Jun-16 03:53N 49°18' W 123°07'0 0.1
2018-Jun-16 03:26N 49°18' W 123°08'0 0.1
2018-Jun-16 02:59N 49°18' W 123°07'0 0.1
2018-Jun-16 02:26N 49°18' W 123°08'0 0.1
2018-Jun-16 01:56N 49°18' W 123°07'0 0.0
2018-Jun-16 01:02N 49°18' W 123°07'0 0.1
2018-Jun-16 00:44N 49°18' W 123°08'0 0.0
2018-Jun-16 00:29N 49°18' W 123°08'0 0.1
2018-Jun-15 23:47N 49°18' W 123°07'0 0.1
2018-Jun-15 23:11N 49°18' W 123°08'0 0.0
2018-Jun-15 19:44N 49°18' W 123°07'0 0.0
2018-Jun-15 17:29N 49°18' W 123°07'0 0.1
2018-Jun-15 16:56N 49°18' W 123°08'0 0.0
2018-Jun-15 16:26N 49°18' W 123°08'0 0.0
2018-Jun-15 15:53N 49°18' W 123°08'0 0.0
2018-Jun-15 15:29N 49°18' W 123°08'0 0.0
2018-Jun-15 14:59N 49°18' W 123°08'0 0.1
2018-Jun-15 14:29N 49°18' W 123°07'0 0.1
2018-Jun-15 13:56N 49°18' W 123°08'0 0.0
2018-Jun-15 13:26N 49°18' W 123°08'0 0.0
2018-Jun-15 12:56N 49°18' W 123°08'0 0.1
2018-Jun-15 12:29N 49°18' W 123°08'0 0.1
2018-Jun-15 11:59N 49°18' W 123°08'0 0.0
2018-Jun-15 11:29N 49°17' W 123°08'0 0.0
2018-Jun-15 10:56N 49°18' W 123°08'0 0.0
2018-Jun-15 10:29N 49°18' W 123°08'0 0.1
2018-Jun-15 09:59N 49°17' W 123°08'0 0.1
2018-Jun-15 09:29N 49°18' W 123°08'0 0.1
2018-Jun-15 08:59N 49°18' W 123°07'0 0.1
2018-Jun-15 08:26N 49°18' W 123°08'  

Dump ship's entire track history